sensor_id;sensor_type;location;lat;lon;timestamp;P1;durP1;ratioP1;P2;durP2;ratioP2
75593;SDS011;64176;49.156;7.810;2023-06-22T00:01:51;6.65;;;5.10;;
75593;SDS011;64176;49.156;7.810;2023-06-22T00:04:35;7.60;;;4.82;;
75593;SDS011;64176;49.156;7.810;2023-06-22T00:07:19;7.68;;;5.00;;
75593;SDS011;64176;49.156;7.810;2023-06-22T00:10:03;10.93;;;6.03;;
75593;SDS011;64176;49.156;7.810;2023-06-22T00:12:50;9.15;;;4.95;;
75593;SDS011;64176;49.156;7.810;2023-06-22T00:15:35;10.10;;;5.65;;
75593;SDS011;64176;49.156;7.810;2023-06-22T00:18:19;7.75;;;4.65;;
75593;SDS011;64176;49.156;7.810;2023-06-22T00:21:03;9.02;;;5.43;;
75593;SDS011;64176;49.156;7.810;2023-06-22T00:23:48;9.95;;;5.97;;
75593;SDS011;64176;49.156;7.810;2023-06-22T00:26:32;9.13;;;5.40;;
75593;SDS011;64176;49.156;7.810;2023-06-22T00:29:17;10.25;;;6.60;;
75593;SDS011;64176;49.156;7.810;2023-06-22T00:32:02;7.85;;;6.18;;
75593;SDS011;64176;49.156;7.810;2023-06-22T00:34:47;9.32;;;5.78;;
75593;SDS011;64176;49.156;7.810;2023-06-22T00:37:34;8.25;;;5.68;;
75593;SDS011;64176;49.156;7.810;2023-06-22T00:40:19;11.20;;;5.57;;
75593;SDS011;64176;49.156;7.810;2023-06-22T00:43:06;8.05;;;5.03;;
75593;SDS011;64176;49.156;7.810;2023-06-22T00:45:50;9.38;;;5.75;;
75593;SDS011;64176;49.156;7.810;2023-06-22T00:48:35;7.57;;;4.82;;
75593;SDS011;64176;49.156;7.810;2023-06-22T00:51:20;8.32;;;6.00;;
75593;SDS011;64176;49.156;7.810;2023-06-22T00:54:10;7.63;;;6.15;;
75593;SDS011;64176;49.156;7.810;2023-06-22T00:56:55;9.70;;;5.57;;
75593;SDS011;64176;49.156;7.810;2023-06-22T00:59:42;9.15;;;6.30;;
75593;SDS011;64176;49.156;7.810;2023-06-22T01:02:27;7.20;;;5.32;;
75593;SDS011;64176;49.156;7.810;2023-06-22T01:05:13;10.68;;;6.32;;
75593;SDS011;64176;49.156;7.810;2023-06-22T01:08:06;9.00;;;5.78;;
75593;SDS011;64176;49.156;7.810;2023-06-22T01:11:16;10.70;;;6.28;;
75593;SDS011;64176;49.156;7.810;2023-06-22T01:17:01;13.05;;;6.45;;
75593;SDS011;64176;49.156;7.810;2023-06-22T01:22:33;9.80;;;5.90;;
75593;SDS011;64176;49.156;7.810;2023-06-22T01:28:50;8.60;;;6.70;;
75593;SDS011;64176;49.156;7.810;2023-06-22T01:31:40;10.02;;;6.78;;
75593;SDS011;64176;49.156;7.810;2023-06-22T01:34:26;8.50;;;6.28;;
75593;SDS011;64176;49.156;7.810;2023-06-22T01:37:11;9.05;;;5.75;;
75593;SDS011;64176;49.156;7.810;2023-06-22T01:39:56;8.75;;;5.72;;
75593;SDS011;64176;49.156;7.810;2023-06-22T01:42:40;7.43;;;5.93;;
75593;SDS011;64176;49.156;7.810;2023-06-22T01:45:27;7.82;;;6.55;;
75593;SDS011;64176;49.156;7.810;2023-06-22T01:48:11;10.27;;;5.85;;
75593;SDS011;64176;49.156;7.810;2023-06-22T01:50:58;8.98;;;5.90;;
75593;SDS011;64176;49.156;7.810;2023-06-22T01:53:42;8.93;;;5.50;;
75593;SDS011;64176;49.156;7.810;2023-06-22T01:56:26;9.10;;;5.75;;
75593;SDS011;64176;49.156;7.810;2023-06-22T01:59:15;9.63;;;6.05;;
75593;SDS011;64176;49.156;7.810;2023-06-22T02:02:09;8.73;;;6.03;;
75593;SDS011;64176;49.156;7.810;2023-06-22T02:04:56;9.88;;;6.30;;
75593;SDS011;64176;49.156;7.810;2023-06-22T02:08:33;8.73;;;5.97;;
75593;SDS011;64176;49.156;7.810;2023-06-22T02:10:55;8.10;;;6.78;;
75593;SDS011;64176;49.156;7.810;2023-06-22T02:13:44;9.70;;;6.03;;
75593;SDS011;64176;49.156;7.810;2023-06-22T02:16:30;8.38;;;6.10;;
75593;SDS011;64176;49.156;7.810;2023-06-22T02:19:15;7.40;;;5.55;;
75593;SDS011;64176;49.156;7.810;2023-06-22T02:24:46;9.25;;;6.20;;
75593;SDS011;64176;49.156;7.810;2023-06-22T02:27:30;8.02;;;5.95;;
75593;SDS011;64176;49.156;7.810;2023-06-22T02:30:17;9.50;;;6.05;;
75593;SDS011;64176;49.156;7.810;2023-06-22T02:33:01;7.60;;;5.97;;
75593;SDS011;64176;49.156;7.810;2023-06-22T02:35:45;8.25;;;5.90;;
75593;SDS011;64176;49.156;7.810;2023-06-22T02:38:32;8.27;;;6.80;;
75593;SDS011;64176;49.156;7.810;2023-06-22T02:41:20;6.97;;;5.43;;
75593;SDS011;64176;49.156;7.810;2023-06-22T02:44:06;6.20;;;5.28;;
75593;SDS011;64176;49.156;7.810;2023-06-22T02:46:50;8.55;;;5.88;;
75593;SDS011;64176;49.156;7.810;2023-06-22T02:49:38;9.52;;;5.50;;
75593;SDS011;64176;49.156;7.810;2023-06-22T02:52:22;9.07;;;6.60;;
75593;SDS011;64176;49.156;7.810;2023-06-22T02:55:06;7.63;;;6.38;;
75593;SDS011;64176;49.156;7.810;2023-06-22T02:57:52;8.75;;;5.90;;
75593;SDS011;64176;49.156;7.810;2023-06-22T03:00:37;9.05;;;6.25;;
75593;SDS011;64176;49.156;7.810;2023-06-22T03:03:23;9.30;;;5.70;;
75593;SDS011;64176;49.156;7.810;2023-06-22T03:09:01;8.25;;;5.63;;
75593;SDS011;64176;49.156;7.810;2023-06-22T03:11:48;7.00;;;5.80;;
75593;SDS011;64176;49.156;7.810;2023-06-22T03:14:37;8.30;;;5.38;;
75593;SDS011;64176;49.156;7.810;2023-06-22T03:17:25;6.75;;;5.28;;
75593;SDS011;64176;49.156;7.810;2023-06-22T03:20:11;6.82;;;5.22;;
75593;SDS011;64176;49.156;7.810;2023-06-22T03:22:56;7.53;;;5.40;;
75593;SDS011;64176;49.156;7.810;2023-06-22T03:25:42;16.38;;;7.32;;
75593;SDS011;64176;49.156;7.810;2023-06-22T03:28:28;12.68;;;7.15;;
75593;SDS011;64176;49.156;7.810;2023-06-22T03:31:15;8.82;;;6.07;;
75593;SDS011;64176;49.156;7.810;2023-06-22T03:33:59;13.10;;;7.13;;
75593;SDS011;64176;49.156;7.810;2023-06-22T03:36:46;10.45;;;6.90;;
75593;SDS011;64176;49.156;7.810;2023-06-22T03:39:30;8.65;;;6.32;;
75593;SDS011;64176;49.156;7.810;2023-06-22T03:42:15;8.82;;;7.05;;
75593;SDS011;64176;49.156;7.810;2023-06-22T03:44:59;8.65;;;6.30;;
75593;SDS011;64176;49.156;7.810;2023-06-22T03:47:45;9.25;;;6.70;;
75593;SDS011;64176;49.156;7.810;2023-06-22T03:50:29;9.02;;;7.03;;
75593;SDS011;64176;49.156;7.810;2023-06-22T03:53:13;11.23;;;6.90;;
75593;SDS011;64176;49.156;7.810;2023-06-22T03:55:57;9.52;;;6.57;;
75593;SDS011;64176;49.156;7.810;2023-06-22T03:58:41;8.38;;;6.28;;
75593;SDS011;64176;49.156;7.810;2023-06-22T04:01:30;8.80;;;6.88;;
75593;SDS011;64176;49.156;7.810;2023-06-22T04:06:58;34.63;;;7.65;;
75593;SDS011;64176;49.156;7.810;2023-06-22T04:09:42;10.82;;;6.72;;
75593;SDS011;64176;49.156;7.810;2023-06-22T04:12:26;8.30;;;6.30;;
75593;SDS011;64176;49.156;7.810;2023-06-22T04:15:10;17.38;;;7.55;;
75593;SDS011;64176;49.156;7.810;2023-06-22T04:17:58;12.40;;;7.55;;
75593;SDS011;64176;49.156;7.810;2023-06-22T04:20:42;9.20;;;6.32;;
75593;SDS011;64176;49.156;7.810;2023-06-22T04:23:25;13.63;;;6.20;;
75593;SDS011;64176;49.156;7.810;2023-06-22T04:26:09;13.65;;;7.03;;
75593;SDS011;64176;49.156;7.810;2023-06-22T04:28:53;9.18;;;6.88;;
75593;SDS011;64176;49.156;7.810;2023-06-22T04:31:39;10.10;;;6.93;;
75593;SDS011;64176;49.156;7.810;2023-06-22T04:34:25;10.73;;;6.43;;
75593;SDS011;64176;49.156;7.810;2023-06-22T04:37:12;8.23;;;6.07;;
75593;SDS011;64176;49.156;7.810;2023-06-22T04:39:59;7.30;;;5.78;;
75593;SDS011;64176;49.156;7.810;2023-06-22T04:42:43;8.93;;;6.65;;
75593;SDS011;64176;49.156;7.810;2023-06-22T04:45:35;6.32;;;5.18;;
75593;SDS011;64176;49.156;7.810;2023-06-22T04:48:21;6.72;;;5.72;;
75593;SDS011;64176;49.156;7.810;2023-06-22T04:51:08;6.70;;;5.38;;
75593;SDS011;64176;49.156;7.810;2023-06-22T04:53:55;6.72;;;5.53;;
75593;SDS011;64176;49.156;7.810;2023-06-22T04:56:44;8.38;;;6.85;;
75593;SDS011;64176;49.156;7.810;2023-06-22T04:59:30;7.60;;;6.28;;
75593;SDS011;64176;49.156;7.810;2023-06-22T05:02:14;7.68;;;6.15;;
75593;SDS011;64176;49.156;7.810;2023-06-22T05:04:58;7.10;;;5.88;;
75593;SDS011;64176;49.156;7.810;2023-06-22T05:07:43;8.43;;;6.13;;
75593;SDS011;64176;49.156;7.810;2023-06-22T05:10:28;7.72;;;6.28;;
75593;SDS011;64176;49.156;7.810;2023-06-22T05:15:58;8.20;;;6.03;;
75593;SDS011;64176;49.156;7.810;2023-06-22T05:18:45;9.13;;;6.15;;
75593;SDS011;64176;49.156;7.810;2023-06-22T05:21:29;8.40;;;5.68;;
75593;SDS011;64176;49.156;7.810;2023-06-22T05:24:14;7.50;;;5.50;;
75593;SDS011;64176;49.156;7.810;2023-06-22T05:26:58;7.20;;;5.40;;
75593;SDS011;64176;49.156;7.810;2023-06-22T05:29:44;8.48;;;6.22;;
75593;SDS011;64176;49.156;7.810;2023-06-22T05:32:31;7.25;;;5.13;;
75593;SDS011;64176;49.156;7.810;2023-06-22T05:35:15;8.40;;;6.25;;
75593;SDS011;64176;49.156;7.810;2023-06-22T05:37:59;9.25;;;5.82;;
75593;SDS011;64176;49.156;7.810;2023-06-22T05:40:43;8.45;;;6.20;;
75593;SDS011;64176;49.156;7.810;2023-06-22T05:43:26;9.45;;;5.75;;
75593;SDS011;64176;49.156;7.810;2023-06-22T05:46:10;7.78;;;5.80;;
75593;SDS011;64176;49.156;7.810;2023-06-22T05:48:54;7.22;;;5.38;;
75593;SDS011;64176;49.156;7.810;2023-06-22T05:51:38;6.45;;;5.38;;
75593;SDS011;64176;49.156;7.810;2023-06-22T05:54:27;7.47;;;5.28;;
75593;SDS011;64176;49.156;7.810;2023-06-22T05:57:11;7.03;;;5.30;;
75593;SDS011;64176;49.156;7.810;2023-06-22T05:59:55;7.72;;;6.00;;
75593;SDS011;64176;49.156;7.810;2023-06-22T06:02:39;8.70;;;4.95;;
75593;SDS011;64176;49.156;7.810;2023-06-22T06:05:27;6.60;;;5.38;;
75593;SDS011;64176;49.156;7.810;2023-06-22T06:08:12;7.03;;;5.07;;
75593;SDS011;64176;49.156;7.810;2023-06-22T06:10:56;10.10;;;5.38;;
75593;SDS011;64176;49.156;7.810;2023-06-22T06:13:41;7.35;;;5.20;;
75593;SDS011;64176;49.156;7.810;2023-06-22T06:16:25;7.93;;;5.60;;
75593;SDS011;64176;49.156;7.810;2023-06-22T06:19:09;7.07;;;5.30;;
75593;SDS011;64176;49.156;7.810;2023-06-22T06:21:55;7.10;;;4.65;;
75593;SDS011;64176;49.156;7.810;2023-06-22T06:24:39;7.63;;;5.22;;
75593;SDS011;64176;49.156;7.810;2023-06-22T06:27:23;5.85;;;5.15;;
75593;SDS011;64176;49.156;7.810;2023-06-22T06:30:38;9.75;;;7.00;;
75593;SDS011;64176;49.156;7.810;2023-06-22T06:33:22;8.00;;;4.72;;
75593;SDS011;64176;49.156;7.810;2023-06-22T06:36:07;7.18;;;4.45;;
75593;SDS011;64176;49.156;7.810;2023-06-22T06:38:52;7.45;;;5.30;;
75593;SDS011;64176;49.156;7.810;2023-06-22T06:41:36;7.82;;;4.88;;
75593;SDS011;64176;49.156;7.810;2023-06-22T06:44:19;6.03;;;4.40;;
75593;SDS011;64176;49.156;7.810;2023-06-22T06:47:04;6.05;;;4.65;;
75593;SDS011;64176;49.156;7.810;2023-06-22T06:49:48;6.85;;;5.00;;
75593;SDS011;64176;49.156;7.810;2023-06-22T06:52:32;8.50;;;6.00;;
75593;SDS011;64176;49.156;7.810;2023-06-22T06:55:19;6.53;;;5.50;;
75593;SDS011;64176;49.156;7.810;2023-06-22T06:58:04;8.52;;;5.30;;
75593;SDS011;64176;49.156;7.810;2023-06-22T07:00:51;8.05;;;4.93;;
75593;SDS011;64176;49.156;7.810;2023-06-22T07:03:35;6.70;;;5.43;;
75593;SDS011;64176;49.156;7.810;2023-06-22T07:06:19;5.25;;;4.65;;
75593;SDS011;64176;49.156;7.810;2023-06-22T07:09:03;7.70;;;5.28;;
75593;SDS011;64176;49.156;7.810;2023-06-22T07:11:49;9.00;;;5.20;;
75593;SDS011;64176;49.156;7.810;2023-06-22T07:14:33;8.98;;;6.07;;
75593;SDS011;64176;49.156;7.810;2023-06-22T07:17:17;8.50;;;5.25;;
75593;SDS011;64176;49.156;7.810;2023-06-22T07:20:01;5.82;;;4.45;;
75593;SDS011;64176;49.156;7.810;2023-06-22T07:22:47;7.00;;;4.40;;
75593;SDS011;64176;49.156;7.810;2023-06-22T07:25:31;9.80;;;5.40;;
75593;SDS011;64176;49.156;7.810;2023-06-22T07:28:18;6.93;;;4.43;;
75593;SDS011;64176;49.156;7.810;2023-06-22T07:31:03;8.32;;;5.75;;
75593;SDS011;64176;49.156;7.810;2023-06-22T07:33:50;7.40;;;4.97;;
75593;SDS011;64176;49.156;7.810;2023-06-22T07:36:34;6.43;;;5.28;;
75593;SDS011;64176;49.156;7.810;2023-06-22T07:39:19;6.70;;;4.93;;
75593;SDS011;64176;49.156;7.810;2023-06-22T07:42:09;9.35;;;5.32;;
75593;SDS011;64176;49.156;7.810;2023-06-22T07:44:56;5.47;;;4.55;;
75593;SDS011;64176;49.156;7.810;2023-06-22T07:47:40;6.07;;;4.32;;
75593;SDS011;64176;49.156;7.810;2023-06-22T07:50:25;6.15;;;4.65;;
75593;SDS011;64176;49.156;7.810;2023-06-22T07:53:09;6.25;;;5.07;;
75593;SDS011;64176;49.156;7.810;2023-06-22T07:55:56;7.85;;;5.25;;
75593;SDS011;64176;49.156;7.810;2023-06-22T07:58:40;5.72;;;4.60;;
75593;SDS011;64176;49.156;7.810;2023-06-22T08:01:24;6.10;;;4.68;;
75593;SDS011;64176;49.156;7.810;2023-06-22T08:04:08;9.70;;;4.63;;
75593;SDS011;64176;49.156;7.810;2023-06-22T08:06:52;7.43;;;4.80;;
75593;SDS011;64176;49.156;7.810;2023-06-22T08:09:38;6.32;;;4.85;;
75593;SDS011;64176;49.156;7.810;2023-06-22T08:12:30;7.40;;;4.35;;
75593;SDS011;64176;49.156;7.810;2023-06-22T08:15:14;7.32;;;5.00;;
75593;SDS011;64176;49.156;7.810;2023-06-22T08:17:59;6.93;;;4.88;;
75593;SDS011;64176;49.156;7.810;2023-06-22T08:20:44;7.95;;;5.03;;
75593;SDS011;64176;49.156;7.810;2023-06-22T08:23:28;5.97;;;4.35;;
75593;SDS011;64176;49.156;7.810;2023-06-22T08:26:12;6.40;;;4.50;;
75593;SDS011;64176;49.156;7.810;2023-06-22T08:28:56;7.88;;;4.22;;
75593;SDS011;64176;49.156;7.810;2023-06-22T08:31:40;7.07;;;4.22;;
75593;SDS011;64176;49.156;7.810;2023-06-22T08:34:24;6.93;;;4.38;;
75593;SDS011;64176;49.156;7.810;2023-06-22T08:37:11;6.85;;;4.70;;
75593;SDS011;64176;49.156;7.810;2023-06-22T08:40:02;7.18;;;4.43;;
75593;SDS011;64176;49.156;7.810;2023-06-22T08:42:52;7.78;;;4.55;;
75593;SDS011;64176;49.156;7.810;2023-06-22T08:45:38;6.57;;;4.60;;
75593;SDS011;64176;49.156;7.810;2023-06-22T08:48:25;7.30;;;5.30;;
75593;SDS011;64176;49.156;7.810;2023-06-22T08:51:09;9.98;;;4.95;;
75593;SDS011;64176;49.156;7.810;2023-06-22T08:53:53;11.93;;;5.10;;
75593;SDS011;64176;49.156;7.810;2023-06-22T08:56:37;6.95;;;5.10;;
75593;SDS011;64176;49.156;7.810;2023-06-22T08:59:23;7.22;;;4.78;;
75593;SDS011;64176;49.156;7.810;2023-06-22T09:02:07;5.57;;;4.53;;
75593;SDS011;64176;49.156;7.810;2023-06-22T09:04:51;7.32;;;4.70;;
75593;SDS011;64176;49.156;7.810;2023-06-22T09:07:40;8.20;;;4.32;;
75593;SDS011;64176;49.156;7.810;2023-06-22T09:10:25;7.95;;;4.35;;
75593;SDS011;64176;49.156;7.810;2023-06-22T09:13:12;9.63;;;4.60;;
75593;SDS011;64176;49.156;7.810;2023-06-22T09:15:56;7.95;;;4.82;;
75593;SDS011;64176;49.156;7.810;2023-06-22T09:18:40;6.28;;;4.53;;
75593;SDS011;64176;49.156;7.810;2023-06-22T09:21:25;8.30;;;4.93;;
75593;SDS011;64176;49.156;7.810;2023-06-22T09:24:10;6.43;;;4.50;;
75593;SDS011;64176;49.156;7.810;2023-06-22T09:26:54;9.23;;;5.07;;
75593;SDS011;64176;49.156;7.810;2023-06-22T09:29:38;7.38;;;4.90;;
75593;SDS011;64176;49.156;7.810;2023-06-22T09:32:22;6.45;;;4.13;;
75593;SDS011;64176;49.156;7.810;2023-06-22T09:35:06;10.68;;;5.18;;
75593;SDS011;64176;49.156;7.810;2023-06-22T09:37:55;9.13;;;5.57;;
75593;SDS011;64176;49.156;7.810;2023-06-22T09:40:44;8.55;;;4.80;;
75593;SDS011;64176;49.156;7.810;2023-06-22T09:43:28;6.85;;;4.30;;
75593;SDS011;64176;49.156;7.810;2023-06-22T09:46:15;7.80;;;4.88;;
75593;SDS011;64176;49.156;7.810;2023-06-22T09:49:02;7.05;;;4.57;;
75593;SDS011;64176;49.156;7.810;2023-06-22T09:51:49;8.32;;;5.05;;
75593;SDS011;64176;49.156;7.810;2023-06-22T09:54:37;7.93;;;4.93;;
75593;SDS011;64176;49.156;7.810;2023-06-22T09:57:21;6.63;;;4.80;;
75593;SDS011;64176;49.156;7.810;2023-06-22T10:00:06;6.88;;;4.43;;
75593;SDS011;64176;49.156;7.810;2023-06-22T10:02:53;8.77;;;4.43;;
75593;SDS011;64176;49.156;7.810;2023-06-22T10:05:37;10.85;;;4.72;;
75593;SDS011;64176;49.156;7.810;2023-06-22T10:08:21;6.13;;;4.57;;
75593;SDS011;64176;49.156;7.810;2023-06-22T10:11:05;9.15;;;4.93;;
75593;SDS011;64176;49.156;7.810;2023-06-22T10:13:49;7.03;;;4.63;;
75593;SDS011;64176;49.156;7.810;2023-06-22T10:16:33;7.50;;;4.65;;
75593;SDS011;64176;49.156;7.810;2023-06-22T10:22:03;6.20;;;4.53;;
75593;SDS011;64176;49.156;7.810;2023-06-22T10:24:50;6.30;;;4.47;;
75593;SDS011;64176;49.156;7.810;2023-06-22T10:27:34;6.82;;;5.03;;
75593;SDS011;64176;49.156;7.810;2023-06-22T10:30:19;8.35;;;5.00;;
75593;SDS011;64176;49.156;7.810;2023-06-22T10:33:03;9.60;;;5.22;;
75593;SDS011;64176;49.156;7.810;2023-06-22T10:35:46;7.07;;;5.03;;
75593;SDS011;64176;49.156;7.810;2023-06-22T10:38:33;6.55;;;4.55;;
75593;SDS011;64176;49.156;7.810;2023-06-22T10:41:17;9.18;;;5.05;;
75593;SDS011;64176;49.156;7.810;2023-06-22T10:44:01;8.75;;;5.43;;
75593;SDS011;64176;49.156;7.810;2023-06-22T10:46:45;7.60;;;4.90;;
75593;SDS011;64176;49.156;7.810;2023-06-22T10:49:29;7.68;;;4.30;;
75593;SDS011;64176;49.156;7.810;2023-06-22T10:52:13;8.10;;;5.30;;
75593;SDS011;64176;49.156;7.810;2023-06-22T10:54:57;8.63;;;4.85;;
75593;SDS011;64176;49.156;7.810;2023-06-22T10:57:46;7.55;;;5.32;;
75593;SDS011;64176;49.156;7.810;2023-06-22T11:00:33;8.13;;;5.53;;
75593;SDS011;64176;49.156;7.810;2023-06-22T11:03:17;9.75;;;5.18;;
75593;SDS011;64176;49.156;7.810;2023-06-22T11:06:01;9.48;;;5.38;;
75593;SDS011;64176;49.156;7.810;2023-06-22T11:08:45;10.80;;;5.50;;
75593;SDS011;64176;49.156;7.810;2023-06-22T11:11:29;9.50;;;4.85;;
75593;SDS011;64176;49.156;7.810;2023-06-22T11:14:18;11.23;;;4.90;;
75593;SDS011;64176;49.156;7.810;2023-06-22T11:17:04;6.70;;;4.47;;
75593;SDS011;64176;49.156;7.810;2023-06-22T11:19:49;8.27;;;4.88;;
75593;SDS011;64176;49.156;7.810;2023-06-22T11:22:36;12.05;;;4.72;;
75593;SDS011;64176;49.156;7.810;2023-06-22T11:25:23;5.95;;;4.85;;
75593;SDS011;64176;49.156;7.810;2023-06-22T11:28:07;8.30;;;4.97;;
75593;SDS011;64176;49.156;7.810;2023-06-22T11:30:51;6.53;;;4.50;;
75593;SDS011;64176;49.156;7.810;2023-06-22T11:33:35;8.65;;;4.68;;
75593;SDS011;64176;49.156;7.810;2023-06-22T11:36:19;9.27;;;4.70;;
75593;SDS011;64176;49.156;7.810;2023-06-22T11:39:03;7.45;;;4.70;;
75593;SDS011;64176;49.156;7.810;2023-06-22T11:41:48;6.45;;;5.32;;
75593;SDS011;64176;49.156;7.810;2023-06-22T11:44:32;7.97;;;6.15;;
75593;SDS011;64176;49.156;7.810;2023-06-22T11:47:16;8.18;;;4.95;;
75593;SDS011;64176;49.156;7.810;2023-06-22T11:50:00;7.40;;;4.85;;
75593;SDS011;64176;49.156;7.810;2023-06-22T11:52:44;7.55;;;5.40;;
75593;SDS011;64176;49.156;7.810;2023-06-22T11:55:28;10.40;;;5.68;;
75593;SDS011;64176;49.156;7.810;2023-06-22T11:58:13;10.65;;;4.97;;
75593;SDS011;64176;49.156;7.810;2023-06-22T12:00:56;10.85;;;4.85;;
75593;SDS011;64176;49.156;7.810;2023-06-22T12:03:43;10.98;;;5.53;;
75593;SDS011;64176;49.156;7.810;2023-06-22T12:06:27;8.38;;;5.53;;
75593;SDS011;64176;49.156;7.810;2023-06-22T12:09:13;6.70;;;4.78;;
75593;SDS011;64176;49.156;7.810;2023-06-22T12:11:57;8.77;;;5.40;;
75593;SDS011;64176;49.156;7.810;2023-06-22T12:14:41;10.50;;;5.93;;
75593;SDS011;64176;49.156;7.810;2023-06-22T12:17:25;6.82;;;4.93;;
75593;SDS011;64176;49.156;7.810;2023-06-22T12:20:09;9.80;;;5.20;;
75593;SDS011;64176;49.156;7.810;2023-06-22T12:22:54;8.82;;;5.40;;
75593;SDS011;64176;49.156;7.810;2023-06-22T12:25:40;10.15;;;5.50;;
75593;SDS011;64176;49.156;7.810;2023-06-22T12:28:23;9.82;;;5.35;;
75593;SDS011;64176;49.156;7.810;2023-06-22T12:31:07;10.98;;;5.13;;
75593;SDS011;64176;49.156;7.810;2023-06-22T12:33:51;10.60;;;5.82;;
75593;SDS011;64176;49.156;7.810;2023-06-22T12:36:35;11.38;;;5.70;;
75593;SDS011;64176;49.156;7.810;2023-06-22T12:39:22;10.25;;;4.90;;
75593;SDS011;64176;49.156;7.810;2023-06-22T12:42:06;8.25;;;5.45;;
75593;SDS011;64176;49.156;7.810;2023-06-22T12:47:36;8.13;;;5.15;;
75593;SDS011;64176;49.156;7.810;2023-06-22T12:50:20;11.60;;;5.35;;
75593;SDS011;64176;49.156;7.810;2023-06-22T12:53:04;8.80;;;5.45;;
75593;SDS011;64176;49.156;7.810;2023-06-22T12:55:49;9.95;;;5.05;;
75593;SDS011;64176;49.156;7.810;2023-06-22T12:58:33;8.05;;;5.07;;
75593;SDS011;64176;49.156;7.810;2023-06-22T13:01:17;8.00;;;5.40;;
75593;SDS011;64176;49.156;7.810;2023-06-22T13:04:04;8.35;;;5.70;;
75593;SDS011;64176;49.156;7.810;2023-06-22T13:06:51;8.48;;;5.00;;
75593;SDS011;64176;49.156;7.810;2023-06-22T13:09:38;10.05;;;5.72;;
75593;SDS011;64176;49.156;7.810;2023-06-22T13:12:24;8.48;;;5.15;;
75593;SDS011;64176;49.156;7.810;2023-06-22T13:15:11;9.90;;;5.57;;
75593;SDS011;64176;49.156;7.810;2023-06-22T13:17:55;7.55;;;4.75;;
75593;SDS011;64176;49.156;7.810;2023-06-22T13:20:39;8.25;;;4.70;;
75593;SDS011;64176;49.156;7.810;2023-06-22T13:23:23;12.85;;;5.30;;
75593;SDS011;64176;49.156;7.810;2023-06-22T13:26:12;11.32;;;5.22;;
75593;SDS011;64176;49.156;7.810;2023-06-22T13:28:56;11.40;;;5.80;;
75593;SDS011;64176;49.156;7.810;2023-06-22T13:31:40;11.90;;;5.97;;
75593;SDS011;64176;49.156;7.810;2023-06-22T13:34:24;8.45;;;5.55;;
75593;SDS011;64176;49.156;7.810;2023-06-22T13:37:08;9.20;;;5.93;;
75593;SDS011;64176;49.156;7.810;2023-06-22T13:39:51;9.20;;;6.00;;
75593;SDS011;64176;49.156;7.810;2023-06-22T13:42:35;9.18;;;5.18;;
75593;SDS011;64176;49.156;7.810;2023-06-22T13:45:20;13.00;;;6.57;;
75593;SDS011;64176;49.156;7.810;2023-06-22T13:48:04;11.20;;;6.00;;
75593;SDS011;64176;49.156;7.810;2023-06-22T13:50:49;10.82;;;6.25;;
75593;SDS011;64176;49.156;7.810;2023-06-22T13:53:38;16.38;;;6.78;;
75593;SDS011;64176;49.156;7.810;2023-06-22T13:56:22;8.45;;;5.85;;
75593;SDS011;64176;49.156;7.810;2023-06-22T13:59:09;10.77;;;5.80;;
75593;SDS011;64176;49.156;7.810;2023-06-22T14:01:55;14.73;;;6.05;;
75593;SDS011;64176;49.156;7.810;2023-06-22T14:04:40;8.48;;;5.40;;
75593;SDS011;64176;49.156;7.810;2023-06-22T14:07:24;9.52;;;5.30;;
75593;SDS011;64176;49.156;7.810;2023-06-22T14:10:08;10.48;;;5.50;;
75593;SDS011;64176;49.156;7.810;2023-06-22T14:12:54;10.32;;;5.50;;
75593;SDS011;64176;49.156;7.810;2023-06-22T14:15:40;8.73;;;5.53;;
75593;SDS011;64176;49.156;7.810;2023-06-22T14:18:24;9.38;;;5.75;;
75593;SDS011;64176;49.156;7.810;2023-06-22T14:21:08;8.00;;;4.88;;
75593;SDS011;64176;49.156;7.810;2023-06-22T14:23:52;11.35;;;5.78;;
75593;SDS011;64176;49.156;7.810;2023-06-22T14:26:36;8.48;;;4.93;;
75593;SDS011;64176;49.156;7.810;2023-06-22T14:29:20;11.63;;;5.22;;
75593;SDS011;64176;49.156;7.810;2023-06-22T14:32:09;11.45;;;5.80;;
75593;SDS011;64176;49.156;7.810;2023-06-22T14:34:56;10.45;;;5.55;;
75593;SDS011;64176;49.156;7.810;2023-06-22T14:37:40;13.90;;;6.53;;
75593;SDS011;64176;49.156;7.810;2023-06-22T14:40:24;10.68;;;5.15;;
75593;SDS011;64176;49.156;7.810;2023-06-22T14:43:08;10.45;;;5.60;;
75593;SDS011;64176;49.156;7.810;2023-06-22T14:45:54;11.23;;;5.30;;
75593;SDS011;64176;49.156;7.810;2023-06-22T14:48:38;12.90;;;5.70;;
75593;SDS011;64176;49.156;7.810;2023-06-22T14:51:23;11.07;;;5.25;;
75593;SDS011;64176;49.156;7.810;2023-06-22T14:54:09;9.10;;;4.93;;
75593;SDS011;64176;49.156;7.810;2023-06-22T14:56:56;9.43;;;5.07;;
75593;SDS011;64176;49.156;7.810;2023-06-22T14:59:40;10.18;;;5.47;;
75593;SDS011;64176;49.156;7.810;2023-06-22T15:02:26;13.82;;;5.65;;
75593;SDS011;64176;49.156;7.810;2023-06-22T15:05:10;9.75;;;5.80;;
75593;SDS011;64176;49.156;7.810;2023-06-22T15:07:54;10.68;;;5.13;;
75593;SDS011;64176;49.156;7.810;2023-06-22T15:10:38;6.82;;;5.15;;
75593;SDS011;64176;49.156;7.810;2023-06-22T15:13:22;9.45;;;5.55;;
75593;SDS011;64176;49.156;7.810;2023-06-22T15:16:06;11.27;;;5.72;;
75593;SDS011;64176;49.156;7.810;2023-06-22T15:18:50;8.57;;;5.13;;
75593;SDS011;64176;49.156;7.810;2023-06-22T15:21:34;8.48;;;5.47;;
75593;SDS011;64176;49.156;7.810;2023-06-22T15:24:21;15.27;;;5.13;;
75593;SDS011;64176;49.156;7.810;2023-06-22T15:27:05;14.25;;;5.30;;
75593;SDS011;64176;49.156;7.810;2023-06-22T15:29:49;12.18;;;6.60;;
75593;SDS011;64176;49.156;7.810;2023-06-22T15:32:33;10.57;;;5.35;;
75593;SDS011;64176;49.156;7.810;2023-06-22T15:35:17;11.38;;;6.43;;
75593;SDS011;64176;49.156;7.810;2023-06-22T15:38:04;12.98;;;6.70;;
75593;SDS011;64176;49.156;7.810;2023-06-22T15:40:48;11.15;;;6.03;;
75593;SDS011;64176;49.156;7.810;2023-06-22T15:43:37;11.90;;;5.70;;
75593;SDS011;64176;49.156;7.810;2023-06-22T15:46:23;14.88;;;6.38;;
75593;SDS011;64176;49.156;7.810;2023-06-22T15:49:10;9.05;;;5.38;;
75593;SDS011;64176;49.156;7.810;2023-06-22T15:51:54;13.25;;;4.80;;
75593;SDS011;64176;49.156;7.810;2023-06-22T15:54:38;11.57;;;4.25;;
75593;SDS011;64176;49.156;7.810;2023-06-22T15:57:22;7.60;;;2.85;;
75593;SDS011;64176;49.156;7.810;2023-06-22T16:00:06;8.40;;;3.05;;
75593;SDS011;64176;49.156;7.810;2023-06-22T16:02:51;5.20;;;2.60;;
75593;SDS011;64176;49.156;7.810;2023-06-22T16:05:35;5.05;;;2.30;;
75593;SDS011;64176;49.156;7.810;2023-06-22T16:08:19;5.40;;;2.33;;
75593;SDS011;64176;49.156;7.810;2023-06-22T16:11:03;6.32;;;1.88;;
75593;SDS011;64176;49.156;7.810;2023-06-22T16:13:47;5.15;;;1.98;;
75593;SDS011;64176;49.156;7.810;2023-06-22T16:16:31;5.10;;;1.80;;
75593;SDS011;64176;49.156;7.810;2023-06-22T16:19:15;8.80;;;2.15;;
75593;SDS011;64176;49.156;7.810;2023-06-22T16:21:59;6.95;;;2.28;;
75593;SDS011;64176;49.156;7.810;2023-06-22T16:24:43;7.90;;;2.05;;
75593;SDS011;64176;49.156;7.810;2023-06-22T16:27:28;6.03;;;2.17;;
75593;SDS011;64176;49.156;7.810;2023-06-22T16:30:13;5.03;;;2.08;;
75593;SDS011;64176;49.156;7.810;2023-06-22T16:32:57;6.50;;;1.70;;
75593;SDS011;64176;49.156;7.810;2023-06-22T16:35:46;3.92;;;2.08;;
75593;SDS011;64176;49.156;7.810;2023-06-22T16:38:30;6.53;;;2.10;;
75593;SDS011;64176;49.156;7.810;2023-06-22T16:41:13;7.13;;;2.70;;
75593;SDS011;64176;49.156;7.810;2023-06-22T16:44:02;7.63;;;2.10;;
75593;SDS011;64176;49.156;7.810;2023-06-22T16:46:50;6.63;;;2.17;;
75593;SDS011;64176;49.156;7.810;2023-06-22T16:49:34;7.53;;;2.22;;
75593;SDS011;64176;49.156;7.810;2023-06-22T16:52:20;9.48;;;3.45;;
75593;SDS011;64176;49.156;7.810;2023-06-22T16:55:07;7.07;;;1.98;;
75593;SDS011;64176;49.156;7.810;2023-06-22T16:57:54;7.40;;;1.83;;
75593;SDS011;64176;49.156;7.810;2023-06-22T17:00:45;9.48;;;1.70;;